• Join FlightAware (Why Join?)
  • Login
  • US Flag 
06:41AM EDT


 

Airport Tracker/Info


-or-


 

Live Flight TrackerFlight Track Log ✈ AAL8 ✈ 16-Jul-2013 ✈ PHNL - KDFW

Flight Track Log - Related Links

Times and Time Zones

All times are in EDT time to prevent confusion due to time zone crossing. See the AAL8 flight status page for this flight to view local times or setup timezone preferences in your user account.

Time Position Orientation Groundspeed Altitude Reporting Facility
EDT Latitude Longitude Course Direction KTS MPH feet Rate Location/Type
11:18PM 21.2053 -157.5009 108° East  Level FlightAware Approximate
11:18PM 21.2010 -157.7330 100° East 279 321 8,400  Level FlightAware
11:19PM 21.1767 -157.3601 100° East  Level FlightAware Approximate
11:19PM 21.2070 -157.6960 80° East 297 342 9,400  Level FlightAware
11:19PM 21.2130 -157.6390 84° East 313 360 10,900 1,920 Climbing FlightAware
11:20PM 21.2200 -157.5640 84° East 348 400 12,200 1,740 Climbing FlightAware
11:21PM 21.2290 -157.4860 83° East 391 450 13,400 1,860 Climbing FlightAware
11:22PM 21.2410 -157.3980 82° East 416 479 14,900 2,280 Climbing FlightAware
11:22PM 21.2500 -157.3180 83° East 418 481 16,700 2,400 Climbing FlightAware
11:23PM 21.2590 -157.2330 84° East 433 498 18,100 2,160 Climbing FlightAware
11:24PM 21.2710 -157.1370 82° East 443 510 19,800 1,740 Climbing FlightAware
11:24PM 21.2820 -157.0580 81° East 464 534 20,600 600 Climbing FlightAware
11:25PM 21.2930 -156.9820 81° East 464 534 20,600  Level FlightAware
11:26PM 21.3070 -156.8890 81° East 464 534 20,600  Level FlightAware
11:26PM 21.3170 -156.8200 81° East 464 534 20,600  Level FlightAware
11:27PM 21.3270 -156.7500 81° East 464 534 20,600  Level FlightAware
11:28PM 21.3370 -156.6800 81° East 464 534 20,600 5,100 Level FlightAware
11:29PM 21.3667 -156.4333 81° East 500 575 28,900 4,860 Climbing Honolulu Center
11:30PM 21.3833 -156.2833 83° East 510 587 30,600 1,620 Climbing Honolulu Center
11:31PM 21.4000 -156.1333 83° East 500 575 32,200 1,500 Climbing Honolulu Center
11:32PM 21.4167 -155.9833 83° East 500 575 33,600 1,200 Climbing Honolulu Center
11:33PM 21.4167 -155.8500 90° East 510 587 34,700 660 Climbing Honolulu Center
11:34PM 21.4500 -155.7000 77° East 510 587 35,000 120 Climbing Honolulu Center
11:35PM 21.4500 -155.5500 90° East 500 575 35,000  Level Honolulu Center
11:36PM 21.4667 -155.4000 83° East 490 564 35,000  Level Honolulu Center
11:37PM 21.4833 -155.2667 82° East 490 564 35,000  Level Honolulu Center
11:38PM 21.5000 -155.1167 83° East 490 564 35,000  Level Honolulu Center
11:39PM 21.5167 -154.9667 83° East 500 575 35,000  Level Honolulu Center
11:40PM 21.5333 -154.8167 83° East 500 575 35,000  Level Honolulu Center
11:41PM 21.5500 -154.6667 83° East 510 587 35,000  Level Honolulu Center
11:42PM 21.5667 -154.5167 83° East 510 587 35,000  Level Honolulu Center
11:43PM 21.5833 -154.3667 83° East 510 587 35,000  Level Honolulu Center
11:44PM 21.6000 -154.2167 83° East 510 587 35,000  Level Honolulu Center
11:45PM 21.6667 -154.0500 67° East 510 587 35,000  Level Honolulu Center
11:46PM 21.7000 -153.9167 75° East 510 587 35,000  Level Honolulu Center
11:47PM 21.7500 -153.7667 70° East 500 575 35,000  Level Honolulu Center
11:48PM 21.8000 -153.6167 70° East 510 587 35,000  Level Honolulu Center
11:49PM 21.8500 -153.4833 68° East 510 587 35,000  Level Honolulu Center
11:50PM 21.9000 -153.3333 70° East 510 587 35,000  Level Honolulu Center
11:51PM 21.9333 -153.1833 77° East 510 587 35,000  Level Honolulu Center
11:53PM 22.0110 -152.9297 72° East  Level FlightAware Approximate
12:00AM 22.3015 -151.9674 72° East  Level FlightAware Approximate
12:01AM 22.3567 -151.8360 62° Northeast  Level FlightAware Approximate
12:01AM 22.3500 -151.8833 62° Northeast 500 575 35,000  Level Oakland Oceanic (ODAPS)
12:02AM 22.4196 -151.7082 62° Northeast  Level FlightAware Approximate
12:03AM 22.4824 -151.5802 62° Northeast  Level FlightAware Approximate
12:04AM 22.5451 -151.4521 62° Northeast  Level FlightAware Approximate
12:05AM 22.6077 -151.3239 62° Northeast  Level FlightAware Approximate
12:06AM 22.6702 -151.1956 62° Northeast  Level FlightAware Approximate
12:07AM 22.8674 -150.8198 62° Northeast 500 575 35,000  Level FlightAware Transoceanic
12:08AM 22.9316 -150.6863 62° Northeast 500 575 35,000  Level FlightAware Transoceanic
12:09AM 22.9956 -150.5526 63° Northeast 500 575 35,000  Level FlightAware Transoceanic
12:10AM 23.0596 -150.4189 63° Northeast 500 575 35,000  Level FlightAware Transoceanic
12:11AM 23.1234 -150.2850 63° Northeast 500 575 35,000  Level FlightAware Transoceanic
12:12AM 23.1872 -150.1510 63° Northeast 500 575 35,000  Level FlightAware Transoceanic
12:13AM 23.2508 -150.0168 63° Northeast 500 575 35,000  Level FlightAware Transoceanic
12:14AM 23.3143 -149.8825 63° Northeast 500 575 35,000  Level FlightAware Transoceanic
12:15AM 23.3777 -149.7481 63° Northeast 500 575 35,000  Level FlightAware Transoceanic
12:16AM 23.4409 -149.6136 63° Northeast 500 575 35,000  Level FlightAware Transoceanic
12:17AM 23.5041 -149.4789 63° Northeast 500 575 35,000  Level FlightAware Transoceanic
12:18AM 23.5671 -149.3442 63° Northeast 500 575 35,000  Level FlightAware Transoceanic
12:19AM 23.6301 -149.2092 63° Northeast 500 575 35,000  Level FlightAware Transoceanic
12:20AM 23.6929 -149.0742 63° Northeast 500 575 35,000  Level FlightAware Transoceanic
12:21AM 23.7556 -148.9390 63° Northeast 500 575 35,000  Level FlightAware Transoceanic
12:22AM 23.8181 -148.8037 63° Northeast 500 575 35,000  Level FlightAware Transoceanic
12:23AM 23.8806 -148.6683 63° Northeast 500 575 35,000  Level FlightAware Transoceanic
12:24AM 23.9429 -148.5327 63° Northeast 500 575 35,000  Level FlightAware Transoceanic
12:25AM 24.0051 -148.3970 63° Northeast 500 575 35,000  Level FlightAware Transoceanic
12:26AM 24.0672 -148.2612 63° Northeast 500 575 35,000  Level FlightAware Transoceanic
12:27AM 24.1292 -148.1252 63° Northeast 500 575 35,000  Level FlightAware Transoceanic
12:28AM 24.1911 -147.9891 64° Northeast 500 575 35,000  Level FlightAware Transoceanic
12:29AM 24.2528 -147.8529 64° Northeast 500 575 35,000  Level FlightAware Transoceanic
12:30AM 24.3144 -147.7166 64° Northeast 500 575 35,000  Level FlightAware Transoceanic
12:31AM 24.3759 -147.5801 64° Northeast 500 575 35,000  Level FlightAware Transoceanic
12:32AM 24.4373 -147.4434 64° Northeast 500 575 35,000  Level FlightAware Transoceanic
12:33AM 24.4985 -147.3067 64° Northeast 500 575 35,000  Level FlightAware Transoceanic
12:34AM 24.5596 -147.1698 64° Northeast 500 575 35,000  Level FlightAware Transoceanic
12:35AM 24.6206 -147.0328 64° Northeast 500 575 35,000  Level FlightAware Transoceanic
12:36AM 24.6815 -146.8956 64° Northeast 500 575 35,000  Level FlightAware Transoceanic
12:37AM 24.7423 -146.7583 64° Northeast 500 575 35,000  Level FlightAware Transoceanic
12:38AM 24.8029 -146.6209 64° Northeast 500 575 35,000  Level FlightAware Transoceanic
12:39AM 24.8634 -146.4834 64° Northeast 500 575 35,000  Level FlightAware Transoceanic
12:40AM 24.9238 -146.3457 64° Northeast 500 575 35,000  Level FlightAware Transoceanic
12:41AM 24.9840 -146.2078 64° Northeast 500 575 35,000  Level FlightAware Transoceanic
12:42AM 25.0441 -146.0699 64° Northeast 500 575 35,000  Level FlightAware Transoceanic
12:43AM 25.1041 -145.9318 64° Northeast 500 575 35,000  Level FlightAware Transoceanic
12:44AM 25.1640 -145.7935 64° Northeast 500 575 35,000  Level FlightAware Transoceanic
12:45AM 25.2237 -145.6552 65° Northeast 500 575 35,000  Level FlightAware Transoceanic
12:46AM 25.2833 -145.5167 65° Northeast 500 575 35,000  Level FlightAware Transoceanic
12:47AM 25.3425 -145.3780 65° Northeast 500 575 35,000  Level FlightAware Transoceanic
12:48AM 25.4016 -145.2392 65° Northeast 500 575 35,000  Level FlightAware Transoceanic
12:48AM 25.2833 -145.5167 65° Northeast 498 573 35,000  Level Oakland Oceanic (ODAPS)
12:49AM 25.4605 -145.1003 65° Northeast 500 575 35,000  Level FlightAware Transoceanic
12:50AM 25.5193 -144.9612 65° Northeast 500 575 35,000  Level FlightAware Transoceanic
12:51AM 25.5779 -144.8220 65° Northeast 500 575 35,000  Level FlightAware Transoceanic
12:52AM 25.6365 -144.6826 65° Northeast 500 575 35,000  Level FlightAware Transoceanic
12:53AM 25.6949 -144.5431 65° Northeast 500 575 35,000  Level FlightAware Transoceanic
12:54AM 25.6949 -144.5431 65° Northeast 498 573 35,000  Level FlightAware Transoceanic
12:55AM 25.7531 -144.4035 65° Northeast 498 573 35,000  Level FlightAware Transoceanic
12:56AM 25.8113 -144.2637 65° Northeast 498 573 35,000  Level FlightAware Transoceanic
12:57AM 25.8692 -144.1239 65° Northeast 498 573 35,000  Level FlightAware Transoceanic
12:58AM 25.9271 -143.9838 65° Northeast 498 573 35,000  Level FlightAware Transoceanic
12:59AM 25.9848 -143.8436 65° Northeast 498 573 35,000  Level FlightAware Transoceanic
01:00AM 26.0424 -143.7033 65° Northeast 498 573 35,000  Level FlightAware Transoceanic
01:01AM 26.0999 -143.5629 66° East 498 573 35,000  Level FlightAware Transoceanic
01:02AM 26.1572 -143.4223 66° East 498 573 35,000  Level FlightAware Transoceanic
01:03AM 26.2144 -143.2816 66° East 498 573 35,000  Level FlightAware Transoceanic
01:04AM 26.2714 -143.1407 66° East 498 573 35,000  Level FlightAware Transoceanic
01:05AM 26.3283 -142.9997 66° East 498 573 35,000  Level FlightAware Transoceanic
01:06AM 26.3851 -142.8586 66° East 498 573 35,000  Level FlightAware Transoceanic
01:07AM 26.4417 -142.7173 66° East 498 573 35,000  Level FlightAware Transoceanic
01:08AM 26.4982 -142.5759 66° East 498 573 35,000  Level FlightAware Transoceanic
01:09AM 26.5546 -142.4343 66° East 498 573 35,000  Level FlightAware Transoceanic
01:10AM 26.6108 -142.2926 66° East 498 573 35,000  Level FlightAware Transoceanic
01:11AM 26.6669 -142.1508 66° East 498 573 35,000  Level FlightAware Transoceanic
01:12AM 26.7228 -142.0088 66° East 498 573 35,000  Level FlightAware Transoceanic
01:13AM 26.7786 -141.8667 66° East 498 573 35,000  Level FlightAware Transoceanic
01:14AM 26.8342 -141.7245 66° East 498 573 35,000  Level FlightAware Transoceanic
01:15AM 26.8897 -141.5821 66° East 498 573 35,000  Level FlightAware Transoceanic
01:16AM 26.9451 -141.4395 66° East 498 573 35,000  Level FlightAware Transoceanic
01:17AM 27.0003 -141.2969 67° East 498 573 35,000  Level FlightAware Transoceanic
01:18AM 27.0554 -141.1541 67° East 498 573 35,000  Level FlightAware Transoceanic
01:19AM 27.1103 -141.0111 67° East 498 573 35,000  Level FlightAware Transoceanic
01:20AM 27.1651 -140.8680 67° East 498 573 35,000  Level FlightAware Transoceanic
01:21AM 27.2198 -140.7248 67° East 498 573 35,000  Level FlightAware Transoceanic
01:22AM 27.2743 -140.5814 67° East 498 573 35,000  Level FlightAware Transoceanic
01:23AM 27.3286 -140.4379 67° East 498 573 35,000  Level FlightAware Transoceanic
01:24AM 27.3828 -140.2943 67° East 498 573 35,000  Level FlightAware Transoceanic
01:25AM 27.4369 -140.1505 67° East 498 573 35,000  Level FlightAware Transoceanic
01:26AM 27.4908 -140.0065 67° East 498 573 35,000  Level FlightAware Transoceanic
01:27AM 27.5445 -139.8625 67° East 498 573 35,000  Level FlightAware Transoceanic
01:28AM 27.5982 -139.7182 67° East 498 573 35,000  Level FlightAware Transoceanic
01:29AM 27.6516 -139.5739 67° East 498 573 35,000  Level FlightAware Transoceanic
01:30AM 27.7049 -139.4294 67° East 498 573 35,000  Level FlightAware Transoceanic
01:31AM 27.7581 -139.2848 67° East 498 573 35,000  Level FlightAware Transoceanic
01:32AM 27.8111 -139.1400 68° East 498 573 35,000  Level FlightAware Transoceanic
01:33AM 27.8640 -138.9951 68° East 498 573 35,000  Level FlightAware Transoceanic
01:34AM 27.9167 -138.8500 68° East 498 573 35,000  Level FlightAware Transoceanic
01:35AM 27.9687 -138.7061 68° East 498 573 35,000  Level FlightAware Transoceanic
01:35AM 27.9167 -138.8500 68° East 495 570 35,000  Level Oakland Oceanic (ODAPS)
01:36AM 28.0207 -138.5620 68° East 498 573 35,000  Level FlightAware Transoceanic
01:37AM 28.0724 -138.4177 68° East 498 573 35,000  Level FlightAware Transoceanic
01:38AM 28.1241 -138.2734 68° East 498 573 35,000  Level FlightAware Transoceanic
01:39AM 28.1755 -138.1289 68° East 498 573 35,000  Level FlightAware Transoceanic
01:40AM 28.2269 -137.9842 68° East 498 573 35,000  Level FlightAware Transoceanic
01:41AM 28.2780 -137.8394 68° East 495 570 35,000  Level FlightAware Transoceanic
01:42AM 28.3291 -137.6945 68° East 495 570 35,000  Level FlightAware Transoceanic
01:43AM 28.3799 -137.5494 68° East 495 570 35,000  Level FlightAware Transoceanic
01:44AM 28.4306 -137.4042 68° East 495 570 35,000  Level FlightAware Transoceanic
01:45AM 28.4812 -137.2589 68° East 495 570 35,000  Level FlightAware Transoceanic
01:46AM 28.5316 -137.1134 69° East 495 570 35,000  Level FlightAware Transoceanic
01:47AM 28.5818 -136.9678 69° East 495 570 35,000  Level FlightAware Transoceanic
01:48AM 28.6319 -136.8220 69° East 495 570 35,000  Level FlightAware Transoceanic
01:49AM 28.6818 -136.6761 69° East 495 570 35,000  Level FlightAware Transoceanic
01:50AM 28.7316 -136.5301 69° East 495 570 35,000  Level FlightAware Transoceanic
01:51AM 28.7812 -136.3839 69° East 495 570 35,000  Level FlightAware Transoceanic
01:52AM 28.8307 -136.2376 69° East 495 570 35,000  Level FlightAware Transoceanic
01:53AM 28.8800 -136.0912 69° East 495 570 35,000  Level FlightAware Transoceanic
01:54AM 28.9291 -135.9446 69° East 495 570 35,000  Level FlightAware Transoceanic
01:55AM 28.9781 -135.7979 69° East 495 570 35,000  Level FlightAware Transoceanic
01:56AM 29.0270 -135.6510 69° East 495 570 35,000  Level FlightAware Transoceanic
01:57AM 29.0756 -135.5040 69° East 495 570 35,000  Level FlightAware Transoceanic
01:58AM 29.1241 -135.3568 69° East 495 570 35,000  Level FlightAware Transoceanic
01:59AM 29.1725 -135.2095 69° East 495 570 35,000  Level FlightAware Transoceanic
02:00AM 29.2207 -135.0621 70° East 495 570 35,000  Level FlightAware Transoceanic
02:01AM 29.2687 -134.9146 70° East 495 570 35,000  Level FlightAware Transoceanic
02:02AM 29.3166 -134.7669 70° East 495 570 35,000  Level FlightAware Transoceanic
02:03AM 29.3643 -134.6190 70° East 495 570 35,000  Level FlightAware Transoceanic
02:04AM 29.4118 -134.4711 70° East 495 570 35,000  Level FlightAware Transoceanic
02:05AM 29.4592 -134.3229 70° East 495 570 35,000  Level FlightAware Transoceanic
02:06AM 29.5064 -134.1747 70° East 495 570 35,000  Level FlightAware Transoceanic
02:07AM 29.5534 -134.0263 70° East 495 570 35,000  Level FlightAware Transoceanic
02:08AM 29.6003 -133.8778 70° East 495 570 35,000  Level FlightAware Transoceanic
02:09AM 29.6470 -133.7291 70° East 495 570 35,000  Level FlightAware Transoceanic
02:10AM 29.6936 -133.5803 70° East 495 570 35,000  Level FlightAware Transoceanic
02:11AM 29.7399 -133.4313 70° East 495 570 35,000  Level FlightAware Transoceanic
02:12AM 29.7861 -133.2823 70° East 495 570 35,000  Level FlightAware Transoceanic
02:13AM 29.8322 -133.1330 70° East 495 570 35,000  Level FlightAware Transoceanic
02:14AM 29.8781 -132.9837 71° East 495 570 35,000  Level FlightAware Transoceanic
02:15AM 29.9238 -132.8342 71° East 495 570 35,000  Level FlightAware Transoceanic
02:16AM 29.9693 -132.6846 71° East 495 570 35,000  Level FlightAware Transoceanic
02:17AM 30.0147 -132.5348 71° East 495 570 35,000  Level FlightAware Transoceanic
02:18AM 30.0599 -132.3849 71° East 495 570 35,000  Level FlightAware Transoceanic
02:19AM 30.1049 -132.2349 71° East 495 570 35,000  Level FlightAware Transoceanic
02:20AM 30.1498 -132.0847 71° East 495 570 35,000  Level FlightAware Transoceanic
02:21AM 30.1945 -131.9344 71° East 495 570 35,000  Level FlightAware Transoceanic
02:22AM 30.2390 -131.7839 71° East 495 570 35,000  Level FlightAware Transoceanic
02:23AM 30.2833 -131.6333 71° East 495 570 35,000  Level FlightAware Transoceanic
02:24AM 30.3278 -131.4828 71° East 495 570 35,000  Level FlightAware Transoceanic
02:24AM 30.2833 -131.6333 71° East 495 570 35,000  Level Oakland Oceanic (ODAPS)
02:25AM 30.3721 -131.3321 71° East 495 570 35,000  Level FlightAware Transoceanic
02:26AM 30.4162 -131.1813 71° East 495 570 35,000  Level FlightAware Transoceanic
02:27AM 30.4601 -131.0303 71° East 495 570 35,000  Level FlightAware Transoceanic
02:28AM 30.5039 -130.8792 71° East 495 570 35,000  Level FlightAware Transoceanic
02:29AM 30.5474 -130.7280 72° East 495 570 35,000  Level FlightAware Transoceanic
02:30AM 30.5908 -130.5766 72° East 495 570 35,000  Level FlightAware Transoceanic
02:31AM 30.6341 -130.4251 72° East 495 570 35,000  Level FlightAware Transoceanic
02:32AM 30.6771 -130.2735 72° East 495 570 35,000  Level FlightAware Transoceanic
02:33AM 30.7200 -130.1217 72° East 495 570 35,000  Level FlightAware Transoceanic
02:34AM 30.7627 -129.9698 72° East 495 570 35,000  Level FlightAware Transoceanic
02:35AM 30.8052 -129.8178 72° East 495 570 35,000  Level FlightAware Transoceanic
02:36AM 30.8476 -129.6656 72° East 495 570 35,000  Level FlightAware Transoceanic
02:37AM 30.8897 -129.5133 72° East 495 570 35,000  Level FlightAware Transoceanic
02:38AM 30.9317 -129.3608 72° East 495 570 35,000  Level FlightAware Transoceanic
02:39AM 30.9736 -129.2083 72° East 495 570 35,000  Level FlightAware Transoceanic
02:40AM 31.0152 -129.0555 72° East 495 570 35,000  Level FlightAware Transoceanic
02:41AM 31.0566 -128.9027 72° East 495 570 35,000  Level FlightAware Transoceanic
02:42AM 31.0979 -128.7497 73° East 495 570 35,000  Level FlightAware Transoceanic
02:43AM 31.1390 -128.5966 73° East 495 570 35,000  Level FlightAware Transoceanic
02:44AM 31.1799 -128.4434 73° East 495 570 35,000  Level FlightAware Transoceanic
02:45AM 31.2206 -128.2900 73° East 495 570 35,000  Level FlightAware Transoceanic
02:46AM 31.2612 -128.1365 73° East 495 570 35,000  Level FlightAware Transoceanic
02:47AM 31.3015 -127.9828 73° East 495 570 35,000  Level FlightAware Transoceanic
02:48AM 31.3417 -127.8291 73° East 495 570 35,000  Level FlightAware Transoceanic
02:49AM 31.3817 -127.6752 73° East 495 570 35,000  Level FlightAware Transoceanic
02:50AM 31.4215 -127.5211 73° East 495 570 35,000  Level FlightAware Transoceanic
02:51AM 31.4612 -127.3670 73° East 495 570 35,000  Level FlightAware Transoceanic
02:52AM 31.5006 -127.2127 73° East 495 570 35,000  Level FlightAware Transoceanic
02:53AM 31.5399 -127.0583 73° East 495 570 35,000  Level FlightAware Transoceanic
02:54AM 31.5789 -126.9037 74° East 495 570 35,000  Level FlightAware Transoceanic
02:55AM 31.6178 -126.7490 74° East 495 570 35,000  Level FlightAware Transoceanic
02:56AM 31.6565 -126.5942 74° East 495 570 35,000  Level FlightAware Transoceanic
02:57AM 31.6950 -126.4393 74° East 495 570 35,000  Level FlightAware Transoceanic
02:58AM 31.7334 -126.2842 74° East 495 570 35,000  Level FlightAware Transoceanic
02:59AM 31.7715 -126.1290 74° East 495 570 35,000  Level FlightAware Transoceanic
03:00AM 31.8095 -125.9737 74° East 495 570 35,000  Level FlightAware Transoceanic
03:01AM 31.8472 -125.8183 74° East 495 570 35,000  Level FlightAware Transoceanic
03:02AM 31.8848 -125.6627 74° East 495 570 35,000  Level FlightAware Transoceanic
03:03AM 31.9222 -125.5070 74° East 495 570 35,000  Level FlightAware Transoceanic
03:04AM 31.9594 -125.3511 74° East 495 570 35,000  Level FlightAware Transoceanic
03:05AM 31.9964 -125.1952 74° East 495 570 35,000  Level FlightAware Transoceanic
03:06AM 32.0332 -125.0391 74° East 495 570 35,000  Level FlightAware Transoceanic
03:07AM 32.0698 -124.8829 75° East 495 570 35,000  Level FlightAware Transoceanic
03:08AM 32.1062 -124.7266 75° East 495 570 35,000  Level FlightAware Transoceanic
03:09AM 32.1424 -124.5701 75° East 495 570 35,000  Level FlightAware Transoceanic
03:10AM 32.1785 -124.4135 75° East 495 570 35,000  Level FlightAware Transoceanic
03:11AM 32.2143 -124.2568 75° East 495 570 35,000  Level FlightAware Transoceanic
03:12AM 32.2500 -124.1000 77° East 495 570 35,000  Level FlightAware Transoceanic
03:13AM 32.2815 -123.9432 77° East 495 570 35,000  Level FlightAware Transoceanic
03:13AM 32.2458 -124.0219 77° East 487 560 35,000  Level Los Angeles Center
03:14AM 32.3129 -123.7862 77° East 495 570 35,000  Level FlightAware Transoceanic
03:14AM 32.2794 -123.8675 76° East 486 559 35,000  Level Los Angeles Center
03:15AM 32.3440 -123.6292 77° East 495 570 35,000  Level FlightAware Transoceanic
03:15AM 32.3117 -123.7125 76° East 486 559 35,000  Level Los Angeles Center
03:16AM 32.3750 -123.4721 77° East 495 570 35,000  Level FlightAware Transoceanic
03:16AM 32.3453 -123.5600 75° East 483 556 35,000  Level Los Angeles Center
03:17AM 32.4057 -123.3148 77° East 495 570 35,000  Level FlightAware Transoceanic
03:17AM 32.3778 -123.4042 76° East 485 558 35,000  Level Los Angeles Center
03:18AM 32.4363 -123.1575 77° East 495 570 35,000  Level FlightAware Transoceanic
03:18AM 32.4106 -123.2483 76° East 487 560 35,000  Level Los Angeles Center
03:19AM 32.4528 -123.0625 75° East 489 563 35,000  Level Los Angeles Center
03:20AM 32.4853 -122.9072 76° East 488 562 35,000  Level Los Angeles Center
03:21AM 32.5211 -122.7542 74° East 485 558 35,000  Level Los Angeles Center
03:22AM 32.5547 -122.5989 76° East 486 559 35,000  Level Los Angeles Center
03:23AM 32.5875 -122.4436 76° East 487 560 35,000  Level Los Angeles Center
03:24AM 32.6197 -122.2878 76° East 486 559 35,000  Level Los Angeles Center
03:25AM 32.6592 -122.1017 76° East 487 560 35,000  Level Los Angeles Center
03:26AM 32.6981 -121.9608 72° East 470 541 35,000  Level Los Angeles Center
03:27AM 32.7264 -121.7992 78° East 492 566 35,000  Level Los Angeles Center
03:28AM 32.7611 -121.6497 75° East 482 555 35,000  Level Los Angeles Center
03:29AM 32.7919 -121.4961 77° East 481 554 35,000  Level Los Angeles Center
03:34AM 32.9180 -120.6950 77° East 475 547 35,000  Level FlightAware
03:35AM 32.9440 -120.5670 76° East 476 548 35,000  Level FlightAware
03:36AM 32.9650 -120.4570 77° East 476 548 35,000  Level FlightAware
03:37AM 32.9880 -120.3410 77° East 477 549 35,000  Level FlightAware
03:37AM 33.0040 -120.2600 77° East 478 550 35,000  Level FlightAware
03:38AM 33.0250 -120.1510 77° East 478 550 35,000  Level FlightAware
03:39AM 33.0490 -120.0260 77° East 479 551 35,000  Level FlightAware
03:39AM 33.0690 -119.9250 77° East 478 550 35,000  Level FlightAware
03:40AM 33.0900 -119.8140 77° East 479 551 35,000  Level FlightAware
03:41AM 33.1100 -119.7070 77° East 478 550 35,000  Level FlightAware
03:41AM 33.1310 -119.5990 77° East 478 550 35,000  Level FlightAware
03:42AM 33.1520 -119.4890 77° East 479 551 35,000  Level FlightAware
03:43AM 33.1720 -119.3820 77° East 479 551 35,000  Level FlightAware
03:43AM 33.1900 -119.2850 77° East 478 550 35,000  Level FlightAware
03:44AM 33.2120 -119.1650 78° East 478 550 35,000  Level FlightAware
03:45AM 33.2290 -119.0710 78° East 478 550 35,000  Level FlightAware
03:46AM 33.2520 -118.9470 77° East 478 550 35,000  Level FlightAware
03:46AM 33.2680 -118.8600 78° East 480 552 35,000  Level FlightAware
03:47AM 33.2900 -118.7400 78° East 483 556 35,000  Level FlightAware
03:48AM 33.3080 -118.6380 78° East 485 558 35,000  Level FlightAware
03:48AM 33.3270 -118.5320 78° East 487 560 35,000  Level FlightAware
03:49AM 33.3430 -118.4190 80° East 481 554 35,000  Level FlightAware
03:50AM 33.3420 -118.3160 91° East 477 549 35,000  Level FlightAware
03:51AM 33.3360 -118.1540 92° East 476 548 35,000  Level FlightAware
03:51AM 33.3330 -118.0680 92° East 476 548 35,000  Level FlightAware
03:52AM 33.3290 -117.9570 92° East 476 548 35,000  Level FlightAware
03:53AM 33.3240 -117.8480 93° East 476 548 35,000  Level FlightAware
03:53AM 33.3200 -117.7330 92° East 475 547 35,000  Level FlightAware
03:54AM 33.3160 -117.6260 93° East 474 545 35,000  Level FlightAware
03:55AM 33.3110 -117.5120 93° East 472 543 35,000  Level FlightAware
03:55AM 33.3060 -117.4090 93° East 471 542 35,000  Level FlightAware
03:56AM 33.3010 -117.2940 93° East 471 542 35,000  Level FlightAware
03:57AM 33.2970 -117.1960 93° East 470 541 35,000  Level FlightAware
03:57AM 33.2920 -117.0820 93° East 470 541 35,000  Level FlightAware
03:58AM 33.2870 -116.9690 93° East 470 541 35,000  Level FlightAware
03:59AM 33.2820 -116.8640 93° East 469 540 35,000  Level FlightAware
04:00AM 33.2760 -116.7510 94° East 467 537 35,000  Level FlightAware
04:00AM 33.2710 -116.6590 94° East 467 537 35,000  Level FlightAware
04:01AM 33.2660 -116.5560 93° East 467 537 35,000  Level FlightAware
04:02AM 33.2610 -116.4470 93° East 468 539 35,000  Level FlightAware
04:02AM 33.2560 -116.3560 94° East 468 539 35,000  Level FlightAware
04:03AM 33.2490 -116.2320 94° East 469 540 35,000  Level FlightAware
04:04AM 33.2430 -116.1180 94° East 468 539 35,000  Level FlightAware
04:05AM 33.2360 -115.9860 94° East 468 539 35,000  Level FlightAware
04:05AM 33.2300 -115.8850 94° East 468 539 35,000  Level FlightAware
04:06AM 33.2240 -115.7820 94° East 468 539 35,000  Level FlightAware
04:07AM 33.2170 -115.6650 94° East 468 539 35,000  Level FlightAware
04:07AM 33.2120 -115.5780 94° East 467 537 35,000  Level FlightAware
04:08AM 33.2050 -115.4650 94° East 468 539 35,000  Level FlightAware
04:09AM 33.1980 -115.3490 94° East 469 540 35,000  Level FlightAware
04:09AM 33.1920 -115.2490 94° East 470 541 35,000  Level FlightAware
04:10AM 33.1850 -115.1440 95° East 471 542 35,000  Level FlightAware
04:10AM 33.1810 -115.0810 94° East 471 542 35,000  Level FlightAware
04:12AM 33.1670 -114.8560 94° East 471 542 35,000  Level FlightAware
04:13AM 33.1620 -114.7810 95° East 471 542 35,000  Level FlightAware
04:13AM 33.1510 -114.6380 95° East 471 542 35,000  Level FlightAware
04:14AM 33.1450 -114.5370 94° East 468 539 35,000  Level FlightAware
04:15AM 33.1410 -114.4580 93° East 468 539 35,000  Level FlightAware
04:15AM 33.1340 -114.3530 95° East 468 539 35,000  Level FlightAware
04:16AM 33.1210 -114.1980 96° East 466 536 35,000  Level FlightAware
04:17AM 33.1120 -114.0810 95° East 466 536 35,000  Level FlightAware
04:18AM 33.1050 -113.9820 95° East 465 535 35,000  Level FlightAware
04:18AM 33.0990 -113.9020 95° East 465 535 35,000  Level FlightAware
04:19AM 33.0930 -113.8210 95° East 465 535 35,000 240 Level FlightAware
04:20AM 33.0830 -113.6970 95° East 35,000 360 Level FlightAware
04:20AM 33.0760 -113.6080 95° East 468 539 35,500 1,260 Climbing FlightAware
04:21AM 33.0670 -113.4910 95° East 465 535 36,700 900 Climbing FlightAware
04:22AM 33.0570 -113.3600 95° East 462 532 37,000 120 Climbing FlightAware
04:23AM 33.0450 -113.2090 95° East 459 528 37,000  Level FlightAware
04:23AM 33.0360 -113.0990 96° East 460 529 37,000  Level FlightAware
04:24AM 33.0280 -112.9980 95° East 461 531 37,000  Level FlightAware
04:25AM 33.0190 -112.8860 95° East 461 531 37,000  Level FlightAware
04:25AM 33.0100 -112.7860 96° East 462 532 37,000  Level FlightAware
04:26AM 33.0010 -112.6790 96° East 463 533 37,000  Level FlightAware
04:27AM 32.9920 -112.5720 96° East 463 533 37,000  Level FlightAware
04:27AM 32.9840 -112.4820 96° East 463 533 37,000  Level FlightAware
04:28AM 32.9750 -112.3790 96° East 463 533 37,000  Level FlightAware
04:29AM 32.9650 -112.2680 96° East 463 533 37,000  Level FlightAware
04:30AM 32.9560 -112.1570 95° East 464 534 37,000  Level FlightAware
04:30AM 32.9470 -112.0560 96° East 465 535 37,000  Level FlightAware
04:31AM 32.9380 -111.9540 96° East 465 535 37,000  Level FlightAware
04:32AM 32.9280 -111.8430 96° East 466 536 37,000  Level FlightAware
04:32AM 32.9210 -111.7650 96° East 467 537 37,000  Level FlightAware
04:33AM 32.9100 -111.6490 96° East 469 540 37,000  Level FlightAware
04:34AM 32.9000 -111.5440 96° East 470 541 37,000  Level FlightAware
04:34AM 32.8890 -111.4290 96° East 471 542 37,000  Level FlightAware
04:35AM 32.8780 -111.3230 97° East 473 544 37,000  Level FlightAware
04:36AM 32.8640 -111.2200 99° East 475 547 37,000  Level FlightAware
04:36AM 32.8440 -111.1020 101° East 475 547 37,000  Level FlightAware
04:37AM 32.8260 -110.9990 102° East 476 548 37,000  Level FlightAware
04:38AM 32.8060 -110.8840 102° East 477 549 37,000  Level FlightAware
04:38AM 32.7880 -110.7830 102° East 477 549 37,000  Level FlightAware
04:39AM 32.7730 -110.6930 101° East 478 550 37,000  Level FlightAware
04:40AM 32.7510 -110.5700 102° East 479 551 37,000  Level FlightAware
04:41AM 32.7320 -110.4620 102° East 479 551 37,000  Level FlightAware
04:41AM 32.7140 -110.3580 102° East 479 551 37,000  Level FlightAware
04:42AM 32.6930 -110.2410 102° East 478 550 37,000  Level FlightAware
04:43AM 32.6760 -110.1430 102° East 478 550 37,000  Level FlightAware
04:43AM 32.6550 -110.0240 102° East 479 551 37,000  Level FlightAware
04:44AM 32.6370 -109.9230 102° East 480 552 37,000  Level FlightAware
04:45AM 32.6170 -109.8130 102° East 480 552 37,000  Level FlightAware
04:45AM 32.5980 -109.7060 102° East 481 554 37,000  Level FlightAware
04:46AM 32.5780 -109.5980 102° East 481 554 37,000  Level FlightAware
04:47AM 32.5580 -109.4850 102° East 479 551 37,000  Level FlightAware
04:48AM 32.5390 -109.3830 102° East 478 550 37,000  Level FlightAware
04:48AM 32.5180 -109.2700 102° East 478 550 37,000  Level FlightAware
04:49AM 32.4990 -109.1680 102° East 479 551 37,000  Level FlightAware
04:50AM 32.4800 -109.0620 102° East 480 552 37,000  Level FlightAware
04:50AM 32.4600 -108.9540 102° East 482 555 37,000  Level FlightAware
04:51AM 32.4420 -108.8580 103° East 483 556 37,000  Level FlightAware
04:52AM 32.4160 -108.7170 102° East 484 557 37,000  Level FlightAware
04:53AM 32.3950 -108.6070 103° East 487 560 37,000  Level FlightAware
04:54AM 32.3690 -108.4720 103° East 37,000  Level FlightAware
04:55AM 32.3370 -108.3060 103° East 490 564 37,000  Level FlightAware
04:55AM 32.3220 -108.2110 101° East 490 564 37,000  Level FlightAware
04:56AM 32.3080 -108.1310 102° East 490 564 37,000  Level FlightAware
04:57AM 32.2910 -108.0230 101° East 490 564 37,000  Level FlightAware
04:57AM 32.2770 -107.9410 101° East 490 564 37,000  Level FlightAware
04:58AM 32.2640 -107.8600 101° East 490 564 37,000  Level FlightAware
04:59AM 32.2460 -107.7530 101° East 490 564 37,000  Level FlightAware
04:59AM 32.2330 -107.6720 101° East 490 564 37,000  Level FlightAware
05:00AM 32.2120 -107.5430 101° East 490 564 37,000  Level FlightAware
05:02AM 32.1790 -107.3460 101° East 490 564 37,000  Level FlightAware
05:02AM 32.1190 -107.0990 106° East 502 578 37,000  Level FlightAware
05:03AM 32.1010 -106.9350 97° East 503 579 37,000  Level FlightAware
05:04AM 32.0890 -106.8260 97° East 504 580 37,000  Level FlightAware
05:04AM 32.0760 -106.7180 98° East 504 580 37,000  Level FlightAware
05:05AM 32.0610 -106.5950 98° East 506 582 37,000  Level FlightAware
05:06AM 32.0470 -106.4740 98° East 508 585 37,000  Level FlightAware
05:07AM 32.0300 -106.3370 98° East 509 586 37,000  Level FlightAware
05:07AM 32.0180 -106.2420 98° East 511 588 37,000  Level FlightAware
05:08AM 32.0050 -106.1390 98° East 513 590 37,000  Level FlightAware
05:09AM 31.9900 -106.0110 98° East 513 590 37,000  Level FlightAware
05:09AM 31.9800 -105.9270 98° East 513 590 37,000  Level FlightAware
05:10AM 31.9660 -105.8160 98° East 513 590 37,000  Level FlightAware
05:11AM 31.9500 -105.6750 98° East 513 590 37,000  Level FlightAware
05:12AM 31.9360 -105.5620 98° East 513 590 37,000  Level FlightAware
05:13AM 31.9260 -105.4770 98° East 513 590 37,000  Level FlightAware
05:13AM 31.9130 -105.3640 98° East 513 590 37,000  Level FlightAware
05:14AM 31.9020 -105.2790 99° East 513 590 37,000  Level FlightAware
05:15AM 31.8830 -105.1190 98° East 513 590 37,000  Level FlightAware
05:16AM 31.8610 -104.9360 98° East 513 590 37,000  Level FlightAware
05:17AM 31.8090 -104.6310 101° East 527 606 37,000  Level FlightAware
05:18AM 31.7980 -104.5490 99° East 527 606 37,000  Level FlightAware
05:19AM 31.7820 -104.4340 99° East 527 606 37,000  Level FlightAware
05:19AM 31.7700 -104.3470 99° East 527 606 37,000  Level FlightAware
05:20AM 31.7550 -104.2320 99° East 527 606 37,000  Level FlightAware
05:21AM 31.7430 -104.1450 99° East 527 606 37,000  Level FlightAware
05:21AM 31.7280 -104.0290 99° East 527 606 37,000  Level FlightAware
05:22AM 31.7160 -103.9430 99° East 527 606 37,000  Level FlightAware
05:23AM 31.7040 -103.8560 99° East 527 606 37,000  Level FlightAware
05:23AM 31.6890 -103.7410 99° East 527 606 37,000  Level FlightAware
05:24AM 31.6770 -103.6540 99° East 527 606 37,000  Level FlightAware
05:25AM 31.6650 -103.5680 99° East 527 606 37,000  Level FlightAware
05:25AM 31.6500 -103.4520 99° East 527 606 37,000  Level FlightAware
05:26AM 31.6380 -103.3660 99° East 527 606 37,000  Level FlightAware
05:27AM 31.5610 -102.9260 101° East 491 565 37,000  Level FlightAware
05:28AM 31.5460 -102.8220 100° East 491 565 37,000  Level FlightAware
05:29AM 31.5350 -102.7200 97° East 494 568 37,000  Level FlightAware
05:29AM 31.5320 -102.6190 92° East 499 574 37,000  Level FlightAware
05:30AM 31.5520 -102.5350 74° East 500 575 37,000  Level FlightAware
05:31AM 31.6030 -102.3400 73° East 497 572 37,000  Level FlightAware
05:32AM 31.6460 -102.1740 73° East 495 570 37,000  Level FlightAware
05:33AM 31.6730 -102.0710 73° East 494 568 37,000  Level FlightAware
05:34AM 31.6990 -101.9720 73° East 491 565 37,000  Level FlightAware
05:34AM 31.7290 -101.8560 73° East 489 563 37,000  Level FlightAware
05:35AM 31.7560 -101.7510 73° East 488 562 37,000  Level FlightAware
05:36AM 31.7840 -101.6410 73° East 487 560 37,000  Level FlightAware
05:36AM 31.8050 -101.5560 74° East 487 560 37,000  Level FlightAware
05:37AM 31.8380 -101.4300 73° East 486 559 37,000  Level FlightAware
05:38AM 31.8600 -101.3420 74° East 484 557 37,000  Level FlightAware
05:38AM 31.8860 -101.2380 74° East 482 555 37,000  Level FlightAware
05:39AM 31.9120 -101.1370 73° East 481 554 37,000  Level FlightAware
05:40AM 31.9370 -101.0350 74° East 480 552 37,000  Level FlightAware
05:40AM 31.9630 -100.9350 73° East 479 551 37,000  Level FlightAware
05:41AM 31.9870 -100.8370 74° East 479 551 37,000  Level FlightAware
05:42AM 32.0120 -100.7380 73° East 478 550 37,000  Level FlightAware
05:42AM 32.0400 -100.6270 73° East 476 548 37,000  Level FlightAware
05:43AM 32.0670 -100.5150 74° East 475 547 37,000  Level FlightAware
05:44AM 32.0920 -100.4150 74° East 475 547 37,000  Level FlightAware
05:46AM 32.1610 -100.1350 74° East 475 547 37,000  Level FlightAware
05:47AM 32.1860 -100.0350 74° East 475 547 37,000  Level FlightAware
05:47AM 32.2220 -99.8850 74° East 475 547 37,000  Level FlightAware
05:48AM 32.2460 -99.7860 74° East 475 547 37,000  Level FlightAware
05:49AM 32.2710 -99.6850 74° East 473 544 37,000  Level FlightAware
05:49AM 32.2920 -99.5970 74° East 472 543 37,000  Level FlightAware
05:50AM 32.3160 -99.4950 74° East 471 542 37,000  Level FlightAware
05:51AM 32.3430 -99.3840 74° East 469 540 37,000  Level FlightAware
05:51AM 32.3650 -99.2940 74° East 467 537 37,000  Level FlightAware
05:52AM 32.3910 -99.1850 74° East 466 536 37,000  Level FlightAware
05:53AM 32.4160 -99.0790 74° East 465 535 37,000  Level FlightAware
05:54AM 32.4400 -98.9760 75° East 464 534 37,000  Level FlightAware
05:54AM 32.4610 -98.8890 74° East 462 532 37,000 -540 Level FlightAware
05:55AM 32.4850 -98.7880 74° East 462 532 36,300 -1,320 Descending FlightAware
05:56AM 32.5090 -98.6850 75° East 467 537 35,200 -1,980 Descending FlightAware
05:56AM 32.5310 -98.5900 75° East 468 539 33,700 -2,820 Descending FlightAware
05:57AM 32.5540 -98.4890 75° East 473 544 31,600 -2,760 Descending FlightAware
05:58AM 32.5780 -98.3890 74° East 463 533 30,000 -2,400 Descending FlightAware
05:58AM 32.6020 -98.2840 75° East 454 522 28,300 -2,340 Descending FlightAware
05:59AM 32.6240 -98.1900 74° East 445 512 26,800 -2,700 Descending FlightAware
06:00AM 32.6480 -98.0840 75° East 444 511 24,600 -2,640 Descending FlightAware
06:00AM 32.6670 -98.0000 75° East 435 501 23,200 -2,340 Descending FlightAware
06:01AM 32.6900 -97.8980 75° East 423 487 21,500 -2,220 Descending FlightAware
06:02AM 32.7100 -97.8090 75° East 411 473 20,100 -2,160 Descending FlightAware
06:02AM 32.7330 -97.7110 74° East 401 461 18,400 -2,220 Descending FlightAware
06:03AM 32.7500 -97.6350 75° East 394 453 17,000 -2,280 Descending FlightAware
06:04AM 32.7740 -97.5430 73° East 388 447 15,400 -2,400 Descending FlightAware
06:04AM 32.8070 -97.4690 62° Northeast 374 430 13,800 -2,880 Descending FlightAware
06:05AM 32.8440 -97.3890 61° Northeast 359 413 11,400 -2,400 Descending FlightAware
06:06AM 32.8740 -97.3230 62° Northeast 320 368 10,400 -1,320 Descending FlightAware
06:06AM 32.8940 -97.2800 61° Northeast 284 327 9,900 -1,500 Descending FlightAware
06:07AM 32.9110 -97.2440 61° Northeast 276 318 8,900 -1,980 Descending FlightAware
06:07AM 32.9180 -97.2280 62° Northeast 269 310 8,600 -2,100 Descending FlightAware
06:08AM 32.9460 -97.1990 41° Northeast 272 313 7,500 -2,220 Descending FlightAware
06:08AM 32.9750 -97.1920 11° North 274 315 6,600 -2,100 Descending FlightAware
06:08AM 33.0120 -97.1850 North 255 293 5,700 -1,740 Descending FlightAware
06:09AM 33.0230 -97.1820 13° North 247 284 5,500 -1,500 Descending FlightAware
06:09AM 33.0560 -97.1740 11° North 223 257 4,700 -1,740 Descending FlightAware
06:09AM 33.0660 -97.1660 34° Northeast 209 241 4,300 -1,740 Descending FlightAware
06:10AM 33.0710 -97.1500 70° East 186 214 3,900 -1,320 Descending FlightAware
06:10AM 33.0710 -97.1250 90° East 177 204 3,400 -1,200 Descending FlightAware
06:10AM 33.0690 -97.1110 100° East 173 199 3,100 -1,020 Descending FlightAware
06:11AM 33.0620 -97.0990 125° Southeast 161 185 2,900 -420 Descending FlightAware
06:11AM 33.0380 -97.0780 144° Southeast 144 166 2,700 -540 Descending FlightAware
06:12AM 33.0250 -97.0750 169° South 146 168 2,300 -960 Descending FlightAware
06:12AM 33.0130 -97.0750 180° South 141 162 2,100 -720 Descending FlightAware
06:12AM 32.9930 -97.0750 180° South 146 168 1,800 -720 Descending FlightAware
06:13AM 32.9840 -97.0760 185° South 146 168 1,600 -840 Descending FlightAware
06:13AM 32.9640 -97.0760 180° South 139 160 1,200 -540 Descending FlightAware
06:14AM 32.9430 -97.0760 180° South 139 160 1,000 -360 Descending FlightAware